Time;durP1;ratioP1;P1;durP2;ratioP2;P2;SDS_P1;SDS_P2;PMS_P1;PMS_P2;Temp;Humidity;BMP_temperature;BMP_pressure;BME280_temperature;BME280_humidity;BME280_pressure;Samples;Min_cycle;Max_cycle;Signal;HPM_P1;HPM_P2
2022/01/27 00:05:54;;;;;;;44.90;23.87;;;3.60;99.90;;;;;;4955233;28;20734;-79
2022/01/27 00:08:27;;;;;;;47.50;23.70;;;3.60;99.90;;;;;;4953792;29;20178;-79
2022/01/27 00:10:58;;;;;;;45.10;23.50;;;3.60;99.90;;;;;;4953933;29;20167;-78
2022/01/27 00:13:30;;;;;;;55.80;24.93;;;3.60;99.90;;;;;;4952913;29;20202;-79
2022/01/27 00:16:11;;;;;;;42.93;23.93;;;3.60;99.90;;;;;;4952412;28;20286;-79
2022/01/27 00:18:37;;;;;;;39.03;23.10;;;3.60;99.90;;;;;;4952473;29;20175;-79
2022/01/27 00:21:02;;;;;;;41.33;23.40;;;3.60;99.90;;;;;;4953761;28;20179;-79
2022/01/27 00:23:28;;;;;;;39.30;22.83;;;3.60;99.90;;;;;;4953625;28;20266;-79
2022/01/27 00:25:53;;;;;;;37.00;21.47;;;3.60;99.90;;;;;;4953276;28;20202;-78
2022/01/27 00:28:19;;;;;;;43.77;23.57;;;3.70;99.90;;;;;;4953629;28;20187;-79
2022/01/27 00:30:44;;;;;;;36.17;21.70;;;3.60;99.90;;;;;;4954086;29;20202;-78
2022/01/27 00:33:10;;;;;;;36.37;21.10;;;3.70;99.90;;;;;;4953445;29;20207;-78
2022/01/27 00:35:36;;;;;;;38.80;22.90;;;3.70;99.90;;;;;;4952045;28;20210;-78
2022/01/27 00:38:02;;;;;;;41.10;23.17;;;3.70;99.90;;;;;;4952330;28;20228;-79
2022/01/27 00:40:28;;;;;;;38.17;23.03;;;3.60;99.90;;;;;;4953347;28;20175;-79
2022/01/27 00:42:53;;;;;;;40.23;23.53;;;3.70;99.90;;;;;;4953832;28;20237;-78
2022/01/27 00:45:19;;;;;;;36.10;22.60;;;3.60;99.90;;;;;;4952854;28;20623;-79
2022/01/27 00:47:45;;;;;;;41.40;22.57;;;3.60;99.90;;;;;;4952192;28;20183;-78
2022/01/27 00:50:15;;;;;;;36.83;22.13;;;3.60;99.90;;;;;;4953348;28;20232;-79
2022/01/27 00:52:45;;;;;;;39.50;22.70;;;3.60;99.90;;;;;;4953632;28;20198;-78
2022/01/27 00:55:13;;;;;;;41.20;22.23;;;3.60;99.90;;;;;;4952075;29;20199;-78
2022/01/27 00:57:59;;;;;;;37.07;21.23;;;3.60;99.90;;;;;;4952351;29;20171;-78
2022/01/27 01:00:30;;;;;;;39.73;22.27;;;3.60;99.90;;;;;;4953029;28;20174;-78
2022/01/27 01:03:10;;;;;;;40.20;22.77;;;3.60;99.90;;;;;;4952205;29;20167;-79
2022/01/27 01:05:58;;;;;;;39.63;23.10;;;3.60;99.90;;;;;;4953365;28;20195;-79
2022/01/27 01:30:22;;;;;;;44.30;23.83;;;3.50;99.90;;;;;;4956249;29;20169;-78
2022/01/27 01:32:54;;;;;;;39.10;23.27;;;3.50;99.90;;;;;;4951475;29;20230;-78
2022/01/27 01:35:27;;;;;;;42.20;23.73;;;3.50;99.90;;;;;;4959117;28;20245;-80
2022/01/27 01:37:55;;;;;;;44.80;25.30;;;3.40;99.90;;;;;;4959809;28;20599;-78
2022/01/27 01:40:20;;;;;;;42.70;23.53;;;3.40;99.90;;;;;;4953021;29;20714;-78
2022/01/27 01:42:46;;;;;;;42.53;23.63;;;3.50;99.90;;;;;;4952492;28;20188;-78
2022/01/27 01:45:17;;;;;;;42.60;24.20;;;3.50;99.90;;;;;;4951756;28;20715;-79
2022/01/27 01:47:44;;;;;;;39.47;22.50;;;3.40;99.90;;;;;;4951820;28;20190;-78
2022/01/27 01:50:10;;;;;;;38.27;22.43;;;3.40;99.90;;;;;;4953633;28;20567;-78
2022/01/27 01:52:36;;;;;;;43.60;23.70;;;3.40;99.90;;;;;;4953177;28;20203;-79
2022/01/27 01:55:04;;;;;;;41.83;23.27;;;3.40;99.90;;;;;;4952822;28;20217;-78
2022/01/27 01:57:29;;;;;;;42.87;22.17;;;3.40;99.90;;;;;;4952362;28;20171;-78
2022/01/27 01:59:55;;;;;;;43.77;23.87;;;3.40;99.90;;;;;;4953403;28;20265;-78
2022/01/27 02:02:21;;;;;;;41.23;21.53;;;3.40;99.90;;;;;;4955190;28;20186;-79
2022/01/27 02:04:46;;;;;;;44.10;22.70;;;3.40;99.90;;;;;;4956064;28;20195;-78
2022/01/27 02:07:43;;;;;;;41.20;22.40;;;3.40;99.90;;;;;;4955651;28;20553;-79
2022/01/27 02:10:31;;;;;;;44.03;23.33;;;3.40;99.90;;;;;;4957273;28;20525;-78
2022/01/27 02:18:24;;;;;;;41.77;22.30;;;3.40;99.90;;;;;;4955809;29;20174;-78
2022/01/27 02:20:50;;;;;;;43.50;23.03;;;3.40;99.90;;;;;;4955586;28;20552;-79
2022/01/27 02:23:15;;;;;;;36.50;20.30;;;3.40;99.90;;;;;;4955702;28;20562;-78
2022/01/27 02:25:41;;;;;;;42.50;21.83;;;3.40;99.90;;;;;;4955511;28;20731;-79
2022/01/27 02:28:06;;;;;;;44.23;23.03;;;3.40;99.90;;;;;;4955860;28;20266;-79
2022/01/27 02:30:32;;;;;;;37.57;20.77;;;3.30;99.90;;;;;;4955688;28;20171;-79
2022/01/27 02:32:59;;;;;;;37.03;20.17;;;3.40;99.90;;;;;;4954057;28;20202;-79
2022/01/27 02:35:27;;;;;;;37.97;21.57;;;3.40;99.90;;;;;;4955049;28;20618;-80
2022/01/27 02:37:53;;;;;;;38.30;21.00;;;3.40;99.90;;;;;;4955064;28;20189;-79
2022/01/27 02:40:26;;;;;;;38.97;19.70;;;3.40;99.90;;;;;;4955520;28;20181;-79
2022/01/27 02:42:52;;;;;;;40.53;21.33;;;3.40;99.90;;;;;;4953853;29;20183;-79
2022/01/27 02:45:26;;;;;;;36.90;19.47;;;3.40;99.90;;;;;;4953950;28;20214;-79
2022/01/27 02:47:52;;;;;;;43.07;22.00;;;3.40;99.90;;;;;;4953760;28;20629;-78
2022/01/27 02:50:18;;;;;;;33.53;18.67;;;3.40;99.90;;;;;;4954920;29;20183;-79
2022/01/27 02:52:44;;;;;;;37.50;20.93;;;3.40;99.90;;;;;;4953369;29;20569;-79
2022/01/27 02:55:10;;;;;;;38.57;21.63;;;3.50;99.90;;;;;;4954842;28;20195;-79
2022/01/27 02:57:36;;;;;;;36.83;20.93;;;3.50;99.90;;;;;;4953805;29;20555;-78
2022/01/27 03:00:03;;;;;;;37.63;20.17;;;3.40;99.90;;;;;;4954782;28;20179;-79
2022/01/27 03:02:28;;;;;;;36.90;19.17;;;3.50;99.90;;;;;;4954627;28;20665;-79
2022/01/27 03:04:54;;;;;;;37.43;19.80;;;3.50;99.90;;;;;;4954761;28;20191;-79
2022/01/27 03:07:20;;;;;;;41.50;20.73;;;3.50;99.90;;;;;;4955075;28;20179;-78
2022/01/27 03:09:45;;;;;;;36.77;20.93;;;3.50;99.90;;;;;;4953958;28;20235;-78
2022/01/27 03:12:12;;;;;;;34.57;19.83;;;3.50;99.90;;;;;;4954538;29;20199;-78
2022/01/27 03:14:38;;;;;;;35.67;20.50;;;3.50;99.90;;;;;;4953092;28;20195;-78
2022/01/27 03:17:05;;;;;;;33.33;19.20;;;3.50;99.90;;;;;;4953615;28;20202;-79
2022/01/27 03:19:32;;;;;;;34.40;20.70;;;3.50;99.90;;;;;;4955277;28;20726;-79
2022/01/27 03:21:58;;;;;;;36.57;19.60;;;3.60;99.90;;;;;;4954755;28;20194;-79
2022/01/27 03:24:25;;;;;;;31.63;19.33;;;3.50;99.90;;;;;;4953186;28;20175;-78
2022/01/27 03:26:52;;;;;;;36.97;20.30;;;3.50;99.90;;;;;;4954436;28;20172;-78
2022/01/27 03:29:18;;;;;;;34.80;19.90;;;3.50;99.90;;;;;;4953575;28;20182;-79
2022/01/27 03:31:45;;;;;;;39.53;21.17;;;3.50;99.90;;;;;;4954383;28;20645;-78
2022/01/27 03:34:11;;;;;;;38.90;20.90;;;3.50;99.90;;;;;;4953338;28;20175;-79
2022/01/27 03:36:37;;;;;;;39.23;20.90;;;3.50;99.90;;;;;;4954793;28;20203;-78
2022/01/27 03:39:03;;;;;;;39.13;20.77;;;3.50;99.90;;;;;;4953072;29;20175;-79
2022/01/27 03:41:32;;;;;;;38.77;19.57;;;3.50;99.90;;;;;;4952844;29;20262;-78
2022/01/27 03:43:58;;;;;;;37.40;20.23;;;3.50;99.90;;;;;;4954222;28;20257;-78
2022/01/27 03:46:23;;;;;;;36.80;21.20;;;3.60;99.90;;;;;;4953953;28;20661;-78
2022/01/27 03:48:49;;;;;;;36.13;20.33;;;3.60;99.90;;;;;;4953951;28;20210;-78
2022/01/27 03:51:15;;;;;;;37.10;19.50;;;3.60;99.90;;;;;;4954340;28;20184;-78
2022/01/27 03:53:41;;;;;;;36.87;21.27;;;3.60;99.90;;;;;;4953183;28;20202;-78
2022/01/27 03:56:07;;;;;;;37.93;19.67;;;3.50;99.90;;;;;;4952778;28;20222;-78
2022/01/27 03:58:33;;;;;;;37.53;19.57;;;3.60;99.90;;;;;;4952928;28;20266;-78
2022/01/27 04:01:01;;;;;;;33.47;19.70;;;3.60;99.90;;;;;;4954695;28;20199;-79
2022/01/27 04:03:29;;;;;;;37.17;19.67;;;3.60;99.90;;;;;;4953279;29;20179;-78
2022/01/27 04:05:56;;;;;;;33.77;19.77;;;3.60;99.90;;;;;;4954250;28;20195;-78
2022/01/27 04:08:22;;;;;;;35.83;19.23;;;3.60;99.90;;;;;;4954495;29;20586;-79
2022/01/27 04:10:49;;;;;;;33.67;20.17;;;3.60;99.90;;;;;;4954944;29;20179;-78
2022/01/27 04:13:15;;;;;;;38.60;19.80;;;3.60;99.90;;;;;;4954626;28;20210;-78
2022/01/27 04:15:42;;;;;;;35.50;19.53;;;3.60;99.90;;;;;;4954496;28;20269;-78
2022/01/27 04:18:09;;;;;;;39.80;20.30;;;3.60;99.90;;;;;;4954625;28;20224;-78
2022/01/27 04:20:36;;;;;;;42.53;21.27;;;3.60;99.90;;;;;;4954471;28;20167;-79
2022/01/27 04:23:02;;;;;;;35.63;19.00;;;3.60;99.90;;;;;;4954400;28;20587;-79
2022/01/27 04:25:27;;;;;;;37.20;20.97;;;3.50;99.90;;;;;;4952994;28;20226;-79
2022/01/27 04:27:57;;;;;;;32.87;19.00;;;3.60;99.90;;;;;;4953830;28;20233;-78
2022/01/27 04:30:25;;;;;;;37.33;19.63;;;3.60;99.90;;;;;;4952386;28;20175;-78
2022/01/27 04:32:57;;;;;;;34.57;18.60;;;3.60;99.90;;;;;;4953278;28;20249;-78
2022/01/27 04:35:26;;;;;;;34.43;19.93;;;3.60;99.90;;;;;;4955465;28;20187;-79
2022/01/27 04:38:33;;;;;;;36.40;18.40;;;3.60;99.90;;;;;;4961330;28;20178;-79
2022/01/27 04:40:55;;;;;;;37.00;19.43;;;3.60;99.90;;;;;;4959996;28;20245;-79
2022/01/27 04:43:30;;;;;;;35.57;19.23;;;3.60;99.90;;;;;;4955092;28;20181;-79
2022/01/27 04:46:15;;;;;;;34.77;18.83;;;3.60;99.90;;;;;;4953444;28;20799;-78
2022/01/27 04:48:52;;;;;;;34.03;19.37;;;3.60;99.90;;;;;;4954387;29;20155;-79
2022/01/27 04:51:21;;;;;;;38.67;19.37;;;3.70;99.90;;;;;;4953444;29;20305;-78
2022/01/27 04:56:42;;;;;;;33.53;19.57;;;3.70;99.90;;;;;;4962462;28;20332;-78
2022/01/27 04:59:15;;;;;;;38.03;20.50;;;3.70;99.90;;;;;;4954549;28;20250;-78
2022/01/27 05:01:50;;;;;;;37.37;20.43;;;3.70;99.90;;;;;;4953314;29;20269;-78
2022/01/27 05:04:18;;;;;;;39.47;20.43;;;3.70;99.90;;;;;;4952391;28;20220;-80
2022/01/27 05:06:45;;;;;;;35.60;19.73;;;3.70;99.90;;;;;;4953444;28;20175;-78
2022/01/27 05:09:10;;;;;;;37.73;20.50;;;3.70;99.90;;;;;;4954249;28;20167;-78
2022/01/27 05:11:44;;;;;;;34.93;20.13;;;3.70;99.90;;;;;;4953892;28;20242;-78
2022/01/27 05:14:16;;;;;;;35.77;20.30;;;3.70;99.90;;;;;;4952162;28;20233;-78
2022/01/27 05:16:42;;;;;;;39.03;21.03;;;3.70;99.90;;;;;;4953472;28;20171;-78
2022/01/27 05:19:07;;;;;;;38.53;20.30;;;3.80;99.90;;;;;;4953476;28;20182;-79
2022/01/27 05:21:33;;;;;;;38.27;20.67;;;3.70;99.90;;;;;;4953838;28;20258;-78
2022/01/27 05:24:00;;;;;;;42.23;21.87;;;3.90;99.90;;;;;;4953602;28;20265;-79
2022/01/27 05:26:26;;;;;;;38.53;20.17;;;3.80;99.90;;;;;;4953969;28;20254;-79
2022/01/27 05:28:52;;;;;;;37.57;19.30;;;3.80;99.90;;;;;;4953603;28;20653;-79
2022/01/27 05:31:17;;;;;;;34.80;19.20;;;3.80;99.90;;;;;;4952620;28;20262;-79
2022/01/27 05:33:43;;;;;;;32.57;19.23;;;3.80;99.90;;;;;;4953458;28;20199;-79
2022/01/27 05:36:08;;;;;;;35.27;19.23;;;3.80;99.90;;;;;;4953991;28;20255;-79
2022/01/27 05:38:35;;;;;;;35.97;19.23;;;3.80;99.90;;;;;;4957037;28;20182;-79
2022/01/27 05:41:01;;;;;;;35.90;19.13;;;3.80;99.90;;;;;;4955520;28;20183;-78
2022/01/27 05:43:26;;;;;;;35.70;18.80;;;3.80;99.90;;;;;;4956900;28;20235;-79
2022/01/27 05:45:52;;;;;;;36.57;20.03;;;3.90;99.90;;;;;;4955909;28;20213;-79
2022/01/27 05:48:17;;;;;;;37.03;19.13;;;3.90;99.90;;;;;;4958290;28;20199;-80
2022/01/27 05:50:43;;;;;;;32.90;17.33;;;3.90;99.90;;;;;;4957882;28;20179;-79
2022/01/27 05:53:08;;;;;;;32.30;18.17;;;3.90;99.90;;;;;;4955341;28;20206;-79
2022/01/27 05:55:34;;;;;;;39.37;19.57;;;3.90;99.90;;;;;;4956910;28;20274;-79
2022/01/27 05:57:59;;;;;;;33.40;17.27;;;4.00;99.90;;;;;;4957148;28;20716;-79
2022/01/27 06:00:27;;;;;;;31.03;18.23;;;4.00;99.90;;;;;;4955760;28;20214;-78
2022/01/27 06:02:53;;;;;;;27.43;15.97;;;4.00;99.90;;;;;;4955183;29;20179;-79
2022/01/27 06:05:18;;;;;;;31.30;16.90;;;4.10;99.90;;;;;;4955270;28;20210;-78
2022/01/27 06:07:44;;;;;;;29.03;17.33;;;4.10;99.90;;;;;;4955237;29;20179;-78
2022/01/27 06:10:09;;;;;;;30.83;16.80;;;4.10;99.90;;;;;;4955319;29;20186;-79
2022/01/27 06:12:45;;;;;;;31.67;16.27;;;4.20;99.90;;;;;;4956402;28;20195;-79
2022/01/27 06:15:10;;;;;;;29.70;17.27;;;4.20;99.90;;;;;;4955099;28;20199;-78
2022/01/27 06:17:36;;;;;;;31.07;16.63;;;4.30;99.90;;;;;;4956229;28;20603;-79
2022/01/27 06:20:03;;;;;;;33.70;16.87;;;4.30;99.90;;;;;;4957265;28;20652;-79
2022/01/27 06:22:28;;;;;;;31.43;16.63;;;4.30;99.90;;;;;;4956852;28;20167;-79
2022/01/27 06:24:54;;;;;;;29.13;16.90;;;4.30;99.90;;;;;;4955095;29;20199;-79
2022/01/27 06:27:19;;;;;;;31.20;17.13;;;4.40;99.90;;;;;;4956628;29;20672;-80
2022/01/27 06:29:45;;;;;;;29.43;16.83;;;4.40;99.90;;;;;;4957195;28;20236;-79
2022/01/27 06:32:11;;;;;;;31.90;17.30;;;4.40;99.90;;;;;;4956484;29;20706;-80
2022/01/27 06:34:37;;;;;;;26.27;15.77;;;4.50;99.90;;;;;;4955010;28;20196;-79
2022/01/27 06:37:02;;;;;;;24.80;15.33;;;4.50;99.90;;;;;;4956496;28;20169;-79
2022/01/27 06:39:28;;;;;;;34.17;16.37;;;4.50;99.90;;;;;;4956284;29;20179;-80
2022/01/27 06:41:53;;;;;;;28.77;15.70;;;4.60;99.90;;;;;;4956300;28;20667;-80
2022/01/27 06:44:19;;;;;;;29.87;16.10;;;4.60;99.90;;;;;;4956210;28;20187;-80
2022/01/27 06:46:45;;;;;;;29.87;16.03;;;4.60;99.90;;;;;;4955093;28;20182;-80
2022/01/27 06:49:16;;;;;;;30.17;16.03;;;4.70;99.90;;;;;;4963843;29;20179;-80
2022/01/27 06:51:42;;;;;;;27.93;16.27;;;4.70;99.90;;;;;;4971963;29;20193;-80
2022/01/27 06:54:07;;;;;;;31.80;16.87;;;4.80;99.90;;;;;;4971872;29;20206;-80
2022/01/27 06:56:33;;;;;;;30.33;17.17;;;4.90;99.90;;;;;;4964887;28;20186;-80
2022/01/27 06:58:58;;;;;;;28.80;16.00;;;4.80;99.90;;;;;;4955359;29;20171;-80
2022/01/27 07:01:24;;;;;;;29.60;16.77;;;4.90;99.90;;;;;;4953612;29;20175;-80
2022/01/27 07:03:50;;;;;;;27.67;16.03;;;4.90;99.90;;;;;;4954704;28;20179;-80
2022/01/27 07:06:15;;;;;;;28.77;16.03;;;4.90;99.90;;;;;;4954642;29;20714;-80
2022/01/27 07:08:41;;;;;;;32.63;16.87;;;4.90;99.90;;;;;;4954764;28;20202;-81
2022/01/27 07:11:06;;;;;;;27.70;16.10;;;4.90;99.90;;;;;;4954542;28;20184;-80
2022/01/27 07:13:32;;;;;;;31.30;16.53;;;5.00;99.90;;;;;;4954550;29;20211;-80
2022/01/27 07:15:58;;;;;;;30.37;15.70;;;5.00;99.90;;;;;;4953254;28;20210;-80
2022/01/27 07:18:24;;;;;;;29.87;16.43;;;5.00;99.90;;;;;;4953346;29;20183;-80
2022/01/27 07:20:50;;;;;;;28.27;15.63;;;5.00;99.90;;;;;;4954839;28;20182;-80
2022/01/27 07:23:16;;;;;;;30.13;14.97;;;5.10;99.90;;;;;;4954109;28;20278;-80
2022/01/27 07:25:41;;;;;;;26.77;14.80;;;5.10;99.90;;;;;;4957313;28;20677;-80
2022/01/27 07:28:07;;;;;;;33.43;16.43;;;5.30;99.90;;;;;;4955487;28;20646;-80
2022/01/27 07:30:33;;;;;;;26.20;15.60;;;5.20;99.90;;;;;;4953448;28;20194;-80
2022/01/27 07:32:58;;;;;;;30.97;15.73;;;5.20;99.90;;;;;;4953607;29;20210;-80
2022/01/27 07:35:24;;;;;;;29.13;16.43;;;5.20;99.90;;;;;;4954022;28;20198;-80
2022/01/27 07:37:50;;;;;;;29.53;16.40;;;5.20;99.90;;;;;;4954064;28;20183;-80
2022/01/27 07:40:15;;;;;;;32.90;16.67;;;5.30;99.90;;;;;;4957731;28;20244;-80
2022/01/27 07:42:41;;;;;;;28.30;16.77;;;5.30;99.90;;;;;;4962226;28;20187;-80
2022/01/27 07:45:08;;;;;;;31.63;16.57;;;5.30;99.90;;;;;;4959045;28;20242;-80
2022/01/27 07:47:33;;;;;;;28.63;15.97;;;5.40;99.90;;;;;;4956522;28;20187;-80
2022/01/27 07:49:59;;;;;;;28.33;16.50;;;5.40;99.90;;;;;;4956661;28;20552;-80
2022/01/27 07:52:25;;;;;;;35.80;17.87;;;5.40;99.90;;;;;;4961369;29;20207;-80
2022/01/27 07:54:51;;;;;;;34.53;16.73;;;5.40;99.90;;;;;;4971016;28;20664;-80
2022/01/27 07:57:16;;;;;;;38.13;17.77;;;5.40;99.90;;;;;;4970228;28;20323;-80
2022/01/27 07:59:42;;;;;;;31.60;17.03;;;5.50;99.90;;;;;;4959450;28;20199;-80
2022/01/27 08:02:07;;;;;;;31.33;16.83;;;5.50;99.90;;;;;;4959203;28;20179;-80
2022/01/27 08:04:33;;;;;;;26.27;16.10;;;5.60;99.90;;;;;;4956643;28;20195;-80
2022/01/27 08:07:00;;;;;;;31.97;16.97;;;5.60;99.90;;;;;;4957381;28;20171;-80
2022/01/27 08:09:26;;;;;;;29.27;15.63;;;5.70;99.90;;;;;;4954801;28;20175;-80
2022/01/27 08:11:52;;;;;;;30.00;17.30;;;5.70;99.90;;;;;;4955245;28;20183;-79
2022/01/27 08:14:17;;;;;;;32.90;16.60;;;5.60;99.90;;;;;;4954336;28;20559;-80
2022/01/27 08:16:43;;;;;;;35.47;18.07;;;5.60;99.90;;;;;;4955824;29;20171;-80
2022/01/27 08:19:09;;;;;;;33.90;19.17;;;5.60;99.90;;;;;;4956072;28;20262;-80
2022/01/27 08:21:34;;;;;;;36.33;18.37;;;5.50;99.90;;;;;;4956901;29;20552;-80
2022/01/27 08:24:00;;;;;;;34.83;18.20;;;5.50;99.90;;;;;;4956258;29;20637;-81
2022/01/27 08:26:37;;;;;;;35.87;19.50;;;5.40;99.90;;;;;;4955520;28;20232;-80
2022/01/27 08:29:10;;;;;;;34.60;19.53;;;5.40;99.90;;;;;;4957413;28;20155;-79
2022/01/27 08:31:55;;;;;;;33.67;18.90;;;5.30;99.90;;;;;;4956696;28;20293;-80
2022/01/27 08:34:29;;;;;;;42.27;20.27;;;5.30;99.90;;;;;;4957102;28;20159;-80
2022/01/27 08:36:56;;;;;;;35.53;19.40;;;5.30;99.90;;;;;;4957085;28;20155;-80
2022/01/27 08:39:22;;;;;;;37.27;20.43;;;5.30;99.90;;;;;;4956894;28;20171;-80
2022/01/27 08:41:47;;;;;;;41.20;18.80;;;5.20;99.90;;;;;;4956873;29;20184;-81
2022/01/27 08:44:13;;;;;;;41.43;19.57;;;5.20;99.90;;;;;;4957347;28;20206;-81
2022/01/27 08:46:38;;;;;;;37.57;20.90;;;5.20;99.90;;;;;;4956822;28;20183;-79
2022/01/27 08:49:05;;;;;;;40.47;20.70;;;5.20;99.90;;;;;;4958009;28;20270;-80
2022/01/27 08:51:30;;;;;;;41.20;20.47;;;5.20;99.90;;;;;;4954493;28;20179;-80
2022/01/27 08:53:56;;;;;;;41.07;20.03;;;5.20;99.90;;;;;;4953847;29;20206;-81
2022/01/27 08:56:22;;;;;;;43.30;21.17;;;5.20;99.90;;;;;;4953441;29;20195;-80
2022/01/27 08:58:47;;;;;;;37.97;19.63;;;5.20;99.90;;;;;;4952420;28;20179;-81
2022/01/27 09:01:13;;;;;;;40.60;19.43;;;5.30;99.90;;;;;;4951916;28;20175;-80
2022/01/27 09:03:39;;;;;;;39.77;21.97;;;5.30;99.90;;;;;;4952207;29;20555;-81
2022/01/27 09:06:05;;;;;;;38.70;21.47;;;5.30;99.90;;;;;;4953746;28;20195;-80
2022/01/27 09:08:30;;;;;;;40.00;20.97;;;5.30;99.90;;;;;;4953988;28;20179;-81
2022/01/27 09:10:56;;;;;;;46.03;21.43;;;5.30;99.90;;;;;;4952077;28;20278;-81
2022/01/27 09:13:22;;;;;;;46.73;22.17;;;5.30;99.90;;;;;;4952435;28;20214;-81
2022/01/27 09:15:49;;;;;;;38.53;21.00;;;5.30;99.90;;;;;;4952343;28;20843;-80
2022/01/27 09:18:15;;;;;;;43.27;21.20;;;5.30;99.90;;;;;;4952497;28;20171;-81
2022/01/27 09:20:41;;;;;;;45.03;23.07;;;5.30;99.90;;;;;;4953784;28;20176;-81
2022/01/27 09:23:13;;;;;;;43.40;22.97;;;5.30;99.90;;;;;;4952365;29;20179;-81
2022/01/27 09:25:48;;;;;;;44.93;22.30;;;5.40;99.90;;;;;;4955139;28;20187;-81
2022/01/27 09:28:15;;;;;;;46.83;22.97;;;5.40;99.90;;;;;;4956507;28;20157;-80
2022/01/27 09:30:43;;;;;;;42.10;21.43;;;5.30;99.90;;;;;;4955464;28;20179;-81
2022/01/27 09:33:09;;;;;;;41.03;22.93;;;5.30;99.90;;;;;;4952454;29;20206;-81
2022/01/27 09:35:35;;;;;;;44.90;23.67;;;5.40;99.90;;;;;;4952980;28;20202;-81
2022/01/27 09:38:01;;;;;;;44.57;20.57;;;5.40;99.90;;;;;;4952254;29;20183;-81
2022/01/27 09:40:29;;;;;;;45.73;23.43;;;5.40;99.90;;;;;;4951572;28;20179;-81
2022/01/27 09:42:55;;;;;;;41.47;22.10;;;5.40;99.90;;;;;;4953445;28;20171;-81
2022/01/27 09:45:23;;;;;;;37.73;22.67;;;5.40;99.90;;;;;;4953690;28;20680;-82
2022/01/27 09:48:00;;;;;;;44.23;22.93;;;5.40;99.90;;;;;;4952477;28;20175;-81
2022/01/27 09:50:47;;;;;;;44.83;22.50;;;5.50;99.90;;;;;;4952584;29;20166;-81
2022/01/27 09:53:13;;;;;;;43.00;22.43;;;5.50;99.90;;;;;;4953961;28;20269;-82
2022/01/27 09:55:39;;;;;;;36.73;20.77;;;5.50;99.90;;;;;;4952186;29;20199;-82
2022/01/27 09:58:06;;;;;;;36.77;22.03;;;5.50;99.90;;;;;;4953290;28;20179;-81
2022/01/27 10:00:32;;;;;;;36.10;20.00;;;5.50;99.90;;;;;;4953149;28;20186;-81
2022/01/27 10:03:17;;;;;;;39.03;21.53;;;5.60;99.90;;;;;;4954332;29;20183;-81
2022/01/27 10:05:44;;;;;;;44.80;21.53;;;5.60;99.90;;;;;;4953086;29;20199;-81
2022/01/27 10:08:19;;;;;;;36.73;20.67;;;5.60;99.90;;;;;;4953664;28;20245;-81
2022/01/27 10:10:50;;;;;;;38.93;19.93;;;5.60;99.90;;;;;;4954920;28;20173;-81
2022/01/27 10:13:40;;;;;;;36.87;20.13;;;5.60;99.90;;;;;;4955447;28;20290;-81
2022/01/27 10:16:07;;;;;;;39.37;20.57;;;5.60;99.90;;;;;;4955680;28;20244;-81
2022/01/27 10:18:36;;;;;;;37.67;20.73;;;5.70;99.90;;;;;;4955139;28;20202;-80
2022/01/27 10:21:03;;;;;;;42.43;21.67;;;5.70;99.90;;;;;;4954406;28;20244;-81
2022/01/27 10:23:33;;;;;;;38.40;20.80;;;5.70;99.90;;;;;;4956979;28;20175;-81
2022/01/27 10:26:10;;;;;;;38.43;20.43;;;5.70;99.90;;;;;;4959383;28;20245;-81
2022/01/27 10:31:30;;;;;;;33.37;20.33;;;5.80;99.90;;;;;;4952971;28;20289;-81
2022/01/27 10:34:01;;;;;;;38.27;19.50;;;5.80;99.90;;;;;;4957873;28;20655;-81
2022/01/27 10:36:41;;;;;;;43.43;20.53;;;5.80;99.90;;;;;;4956997;28;20263;-81
2022/01/27 10:39:22;;;;;;;35.77;20.13;;;5.80;99.90;;;;;;4955224;28;20182;-81
2022/01/27 10:42:14;;;;;;;38.27;19.70;;;5.90;99.90;;;;;;4954975;28;20171;-81
2022/01/27 10:44:48;;;;;;;32.23;19.37;;;5.90;99.90;;;;;;4957789;28;20291;-81
2022/01/27 10:47:21;;;;;;;32.67;19.57;;;5.90;99.90;;;;;;4958190;29;20672;-82
2022/01/27 10:52:34;;;;;;;27.30;17.07;;;6.00;99.90;;;;;;4955178;28;20195;-82
2022/01/27 10:55:17;;;;;;;30.47;18.10;;;6.00;99.90;;;;;;4955215;28;20191;-81
2022/01/27 10:57:49;;;;;;;30.20;17.70;;;6.10;99.90;;;;;;4954162;29;20172;-81
2022/01/27 11:00:20;;;;;;;30.77;17.80;;;6.00;99.90;;;;;;4954543;29;20167;-81
2022/01/27 11:02:57;;;;;;;26.53;15.57;;;6.10;99.90;;;;;;4954139;29;20274;-81
2022/01/27 11:05:29;;;;;;;26.57;16.53;;;6.10;99.90;;;;;;4955449;28;20206;-80
2022/01/27 11:07:56;;;;;;;28.03;16.30;;;6.10;99.90;;;;;;4956201;29;20179;-81
2022/01/27 11:10:22;;;;;;;25.00;15.67;;;6.20;99.90;;;;;;4957174;28;20261;-80
2022/01/27 11:12:49;;;;;;;26.87;15.57;;;6.20;99.90;;;;;;4957252;28;20214;-80
2022/01/27 11:15:17;;;;;;;26.93;16.47;;;6.20;99.90;;;;;;4958245;28;20187;-80
2022/01/27 11:17:44;;;;;;;25.30;15.13;;;6.20;99.90;;;;;;4958910;28;20645;-80
2022/01/27 11:27:53;;;;;;;26.80;15.93;;;6.20;99.90;;;;;;4957686;28;20183;-80
2022/01/27 11:30:47;;;;;;;24.17;15.27;;;6.20;99.90;;;;;;4954555;28;20617;-80
2022/01/27 11:33:14;;;;;;;23.30;14.83;;;6.30;99.90;;;;;;4955893;28;20191;-79
2022/01/27 11:35:41;;;;;;;21.73;14.03;;;6.30;99.90;;;;;;4955953;28;20202;-79
2022/01/27 11:38:08;;;;;;;24.33;14.23;;;6.30;99.90;;;;;;4954452;29;20187;-79
2022/01/27 11:40:38;;;;;;;24.23;14.03;;;6.30;99.90;;;;;;4955917;28;20692;-79
2022/01/27 11:43:10;;;;;;;22.07;13.87;;;6.30;99.90;;;;;;4961791;28;20180;-81
2022/01/27 11:45:40;;;;;;;19.40;13.03;;;6.30;99.90;;;;;;4960896;29;20222;-81
2022/01/27 11:48:25;;;;;;;20.90;13.20;;;6.40;99.90;;;;;;4958283;28;20254;-81
2022/01/27 11:51:07;;;;;;;24.53;13.33;;;6.40;99.90;;;;;;4959753;28;20166;-81
2022/01/27 11:53:45;;;;;;;22.20;13.00;;;6.30;99.90;;;;;;4955902;28;20277;-81
2022/01/27 11:56:31;;;;;;;23.57;13.70;;;6.40;99.90;;;;;;4955891;29;20202;-81
2022/01/27 11:58:59;;;;;;;18.90;13.20;;;6.40;99.90;;;;;;4954579;28;20252;-81
2022/01/27 12:01:26;;;;;;;20.87;13.77;;;6.40;99.90;;;;;;4954341;28;20182;-81
2022/01/27 12:04:05;;;;;;;21.23;13.50;;;6.50;99.90;;;;;;4958257;28;20189;-81
2022/01/27 12:06:32;;;;;;;21.23;13.83;;;6.40;99.90;;;;;;4957626;28;20205;-80
2022/01/27 12:09:28;;;;;;;20.13;13.47;;;6.40;99.90;;;;;;4956425;28;20180;-81
2022/01/27 12:12:12;;;;;;;27.47;14.83;;;6.40;99.90;;;;;;4957530;28;20190;-81
2022/01/27 12:14:39;;;;;;;21.80;13.87;;;6.40;99.90;;;;;;4957486;29;20205;-81
2022/01/27 12:17:08;;;;;;;21.77;14.10;;;6.50;99.90;;;;;;4958761;28;20171;-81
2022/01/27 12:20:01;;;;;;;21.90;14.27;;;6.50;99.90;;;;;;4956990;29;20183;-81
2022/01/27 12:22:52;;;;;;;19.03;12.97;;;6.50;99.90;;;;;;4956831;28;20557;-81
2022/01/27 12:25:19;;;;;;;19.30;13.30;;;6.50;99.90;;;;;;4956492;28;20259;-81
2022/01/27 12:27:54;;;;;;;21.77;14.30;;;6.50;99.90;;;;;;4955373;28;20194;-81
2022/01/27 12:30:19;;;;;;;21.73;14.07;;;6.60;99.90;;;;;;4954453;28;20187;-81
2022/01/27 12:32:48;;;;;;;21.87;14.73;;;6.60;99.90;;;;;;4953577;28;20207;-82
2022/01/27 12:35:16;;;;;;;24.97;14.93;;;6.70;99.90;;;;;;4953542;28;20290;-81
2022/01/27 12:37:47;;;;;;;24.70;14.60;;;6.70;99.90;;;;;;4953994;28;20179;-81
2022/01/27 12:40:22;;;;;;;23.30;14.60;;;6.60;99.90;;;;;;4954764;28;20164;-81
2022/01/27 12:43:03;;;;;;;25.57;14.57;;;6.70;99.90;;;;;;4953411;28;20178;-82
2022/01/27 12:45:31;;;;;;;22.87;15.27;;;6.70;99.90;;;;;;4953581;28;20305;-82
2022/01/27 12:48:02;;;;;;;24.70;13.90;;;6.70;99.90;;;;;;4956583;28;20182;-81
2022/01/27 12:50:29;;;;;;;20.60;13.87;;;6.70;99.90;;;;;;4954681;29;20179;-81
2022/01/27 12:52:59;;;;;;;21.87;14.53;;;6.70;99.90;;;;;;4954379;28;20220;-81
2022/01/27 12:55:34;;;;;;;21.50;14.97;;;6.80;99.90;;;;;;4953776;29;20599;-79
2022/01/27 12:58:10;;;;;;;24.80;16.10;;;6.80;99.90;;;;;;4954239;28;20170;-82
2022/01/27 13:00:37;;;;;;;21.67;13.87;;;6.80;99.90;;;;;;4955374;29;20169;-82
2022/01/27 13:03:03;;;;;;;21.93;14.83;;;6.80;99.90;;;;;;4953841;28;20191;-82
2022/01/27 13:05:40;;;;;;;23.77;13.77;;;6.80;99.90;;;;;;4957452;28;20221;-82
2022/01/27 13:08:14;;;;;;;25.37;15.17;;;6.80;99.90;;;;;;4958730;28;20163;-81
2022/01/27 13:10:49;;;;;;;22.53;13.67;;;6.90;99.90;;;;;;4956432;29;20187;-80
2022/01/27 13:13:20;;;;;;;22.67;14.07;;;6.80;99.90;;;;;;4956188;28;20225;-79
2022/01/27 13:15:54;;;;;;;25.17;14.50;;;6.90;99.90;;;;;;4955860;28;20206;-79
2022/01/27 13:18:28;;;;;;;22.20;12.97;;;6.90;99.90;;;;;;4955942;29;20171;-80
2022/01/27 13:20:57;;;;;;;17.60;12.70;;;6.90;99.90;;;;;;4955191;28;20191;-80
2022/01/27 13:23:29;;;;;;;19.73;12.60;;;6.90;99.90;;;;;;4956776;28;20179;-80
2022/01/27 13:25:59;;;;;;;18.83;13.13;;;6.90;99.90;;;;;;4955855;29;20207;-80
2022/01/27 13:28:29;;;;;;;17.73;13.27;;;6.90;99.90;;;;;;4959119;28;20227;-80
2022/01/27 13:30:59;;;;;;;17.17;12.17;;;6.90;99.90;;;;;;4963803;28;20190;-80
2022/01/27 13:33:26;;;;;;;20.97;13.53;;;6.90;99.90;;;;;;4958343;29;20209;-80